Time,TemperatureF,DewpointF,PressureIn,WindDirection,WindDirectionDegrees,WindSpeedMPH,WindSpeedGustMPH,Humidity,HourlyPrecipIn,Conditions,Clouds,dailyrainin,SoftwareType,DateUTC
2013-12-01 00:04:00,42.1,35.8,30.13,SSW,205,0.0,2.0,78,0.00,,CLR,0.00,VWS V14.01,2013-12-01 06:04:00,
2013-12-01 00:09:00,42.1,35.8,30.13,SSW,205,0.0,4.0,78,0.00,,CLR,0.00,VWS V14.01,2013-12-01 06:09:00,
2013-12-01 00:14:00,42.1,35.8,30.13,SSW,205,0.0,3.0,78,0.00,,CLR,0.00,VWS V14.01,2013-12-01 06:14:00,
2013-12-01 00:19:00,42.0,35.7,30.13,SSW,205,2.0,4.0,78,0.00,,CLR,0.00,VWS V14.01,2013-12-01 06:19:00,
2013-12-01 00:24:00,42.0,35.7,30.13,SSW,205,0.0,4.0,78,0.00,,CLR,0.00,VWS V14.01,2013-12-01 06:24:00,
2013-12-01 00:29:00,41.8,35.5,30.13,SSW,205,1.0,4.0,78,0.00,,CLR,0.00,VWS V14.01,2013-12-01 06:29:00,
2013-12-01 00:34:00,41.7,35.4,30.12,SSW,205,1.0,2.0,78,0.00,,CLR,0.00,VWS V14.01,2013-12-01 06:34:00,
2013-12-01 00:39:00,41.5,35.2,30.12,SSW,205,2.0,3.0,78,0.00,,CLR,0.00,VWS V14.01,2013-12-01 06:39:00,
2013-12-01 00:44:00,41.4,35.1,30.12,SSW,205,1.0,2.0,78,0.00,,CLR,0.00,VWS V14.01,2013-12-01 06:44:00,
2013-12-01 00:49:00,41.3,35.0,30.12,SSW,205,0.0,2.0,78,0.00,,CLR,0.00,VWS V14.01,2013-12-01 06:49:00,
2013-12-01 00:54:00,41.0,34.7,30.12,SSW,205,1.0,1.0,78,0.00,,CLR,0.00,VWS V14.01,2013-12-01 06:54:00,
2013-12-01 00:59:00,40.7,34.4,30.12,SSW,205,0.0,2.0,78,0.00,,CLR,0.00,VWS V14.01,2013-12-01 06:59:00,
2013-12-01 01:04:00,40.6,34.6,30.12,SSW,205,0.0,4.0,79,0.00,,CLR,0.00,VWS V14.01,2013-12-01 07:04:00,
2013-12-01 01:09:00,40.4,34.4,30.12,SSW,205,2.0,4.0,79,0.00,,CLR,0.00,VWS V14.01,2013-12-01 07:09:00,
2013-12-01 01:14:00,40.3,34.3,30.12,SSW,205,0.0,1.0,79,0.00,,CLR,0.00,VWS V14.01,2013-12-01 07:14:00,
2013-12-01 01:19:00,40.2,34.2,30.12,SSW,205,0.0,3.0,79,0.00,,CLR,0.00,VWS V14.01,2013-12-01 07:19:00,
2013-12-01 01:24:00,40.1,34.1,30.12,SSW,205,0.0,0.0,79,0.00,,CLR,0.00,VWS V14.01,2013-12-01 07:24:00,
2013-12-01 01:29:00,39.9,33.9,30.12,SSW,205,0.0,0.0,79,0.00,,CLR,0.00,VWS V14.01,2013-12-01 07:29:00,
2013-12-01 01:34:00,39.8,34.1,30.12,SSW,205,0.0,0.0,80,0.00,,CLR,0.00,VWS V14.01,2013-12-01 07:34:00,
2013-12-01 01:39:00,39.7,34.0,30.12,SSW,205,0.0,0.0,80,0.00,,CLR,0.00,VWS V14.01,2013-12-01 07:39:00,
2013-12-01 01:44:00,39.6,34.0,30.12,SSW,205,0.0,0.0,80,0.00,,CLR,0.00,VWS V14.01,2013-12-01 07:44:00,
2013-12-01 01:49:00,39.4,33.8,30.12,SSW,205,0.0,0.0,80,0.00,,CLR,0.00,VWS V14.01,2013-12-01 07:49:00,
2013-12-01 01:54:00,39.2,33.6,30.12,SSW,205,0.0,0.0,80,0.00,,CLR,0.00,VWS V14.01,2013-12-01 07:54:00,
2013-12-01 02:00:00,39.0,33.4,30.12,SSW,205,0.0,0.0,80,0.00,,CLR,0.00,VWS V14.01,2013-12-01 08:00:00,
2013-12-01 02:05:00,38.8,33.5,30.12,SSW,205,0.0,0.0,81,0.00,,CLR,0.00,VWS V14.01,2013-12-01 08:05:00,
2013-12-01 02:10:00,38.6,33.3,30.12,SSW,205,0.0,0.0,81,0.00,,CLR,0.00,VWS V14.01,2013-12-01 08:10:00,
2013-12-01 02:15:00,38.3,33.0,30.12,SSW,205,0.0,0.0,81,0.00,,CLR,0.00,VWS V14.01,2013-12-01 08:15:00,
2013-12-01 02:20:00,38.1,32.8,30.12,SSW,205,0.0,0.0,81,0.00,,CLR,0.00,VWS V14.01,2013-12-01 08:20:00,
2013-12-01 02:25:00,37.9,32.9,30.12,SSW,205,0.0,0.0,82,0.00,,CLR,0.00,VWS V14.01,2013-12-01 08:25:00,
2013-12-01 02:30:00,37.9,32.9,30.11,SSW,205,0.0,0.0,82,0.00,,CLR,0.00,VWS V14.01,2013-12-01 08:30:00,
2013-12-01 02:35:00,38.1,33.4,30.11,SSW,205,0.0,0.0,83,0.00,,CLR,0.00,VWS V14.01,2013-12-01 08:35:00,
2013-12-01 02:40:00,38.2,33.5,30.11,SSW,205,0.0,0.0,83,0.00,,CLR,0.00,VWS V14.01,2013-12-01 08:40:00,
2013-12-01 02:45:00,38.4,33.7,30.11,SSW,205,0.0,0.0,83,0.00,,SCT046,0.00,VWS V14.01,2013-12-01 08:45:00,
2013-12-01 02:50:00,38.4,33.7,30.11,SSW,205,0.0,0.0,83,0.00,,SCT046,0.00,VWS V14.01,2013-12-01 08:50:00,
2013-12-01 02:55:00,38.4,33.7,30.11,SSW,205,0.0,0.0,83,0.00,,SCT046,0.00,VWS V14.01,2013-12-01 08:55:00,
2013-12-01 03:00:00,38.5,33.8,30.11,SSW,205,0.0,0.0,83,0.00,,SCT046,0.00,VWS V14.01,2013-12-01 09:00:00,
2013-12-01 03:05:00,38.5,33.8,30.11,SSW,205,0.0,0.0,83,0.00,,SCT046,0.00,VWS V14.01,2013-12-01 09:05:00,
2013-12-01 03:10:00,38.6,33.9,30.11,SSW,205,0.0,0.0,83,0.00,,SCT046,0.00,VWS V14.01,2013-12-01 09:10:00,
2013-12-01 03:15:00,38.7,34.0,30.11,SSW,205,0.0,0.0,83,0.00,,SCT046,0.00,VWS V14.01,2013-12-01 09:15:00,
2013-12-01 03:20:00,38.7,34.0,30.11,SSW,205,0.0,0.0,83,0.00,,SCT046,0.00,VWS V14.01,2013-12-01 09:20:00,
2013-12-01 03:25:00,38.7,34.0,30.10,SSW,205,0.0,0.0,83,0.00,,SCT046,0.00,VWS V14.01,2013-12-01 09:25:00,
2013-12-01 03:30:00,38.8,34.1,30.10,SSW,205,0.0,0.0,83,0.00,,SCT046,0.00,VWS V14.01,2013-12-01 09:30:00,
2013-12-01 03:35:00,38.7,34.0,30.10,SSW,205,0.0,1.0,83,0.00,,SCT046,0.00,VWS V14.01,2013-12-01 09:35:00,
2013-12-01 03:40:00,38.6,33.9,30.10,SSW,205,0.0,1.0,83,0.00,,SCT046,0.00,VWS V14.01,2013-12-01 09:40:00,
2013-12-01 03:45:00,38.3,33.6,30.10,SSW,205,0.0,0.0,83,0.00,,CLR,0.00,VWS V14.01,2013-12-01 09:45:00,
2013-12-01 03:50:00,37.9,33.2,30.10,SSW,205,0.0,0.0,83,0.00,,CLR,0.00,VWS V14.01,2013-12-01 09:50:00,
2013-12-01 03:55:00,37.8,33.4,30.10,SSW,205,0.0,0.0,84,0.00,,CLR,0.00,VWS V14.01,2013-12-01 09:55:00,
2013-12-01 04:00:00,37.7,33.3,30.10,SSW,205,0.0,0.0,84,0.00,,CLR,0.00,VWS V14.01,2013-12-01 10:00:00,
2013-12-01 04:05:00,37.5,32.8,30.10,SSW,205,0.0,0.0,83,0.00,,CLR,0.00,VWS V14.01,2013-12-01 10:05:00,
2013-12-01 04:10:00,37.4,33.0,30.10,SSW,205,0.0,0.0,84,0.00,,CLR,0.00,VWS V14.01,2013-12-01 10:10:00,
2013-12-01 04:15:00,37.5,33.4,30.10,SSW,205,0.0,0.0,85,0.00,,CLR,0.00,VWS V14.01,2013-12-01 10:15:00,
2013-12-01 04:20:00,37.9,33.8,30.09,SSW,205,0.0,0.0,85,0.00,,CLR,0.00,VWS V14.01,2013-12-01 10:20:00,
2013-12-01 04:25:00,38.2,34.1,30.09,SSW,205,0.0,0.0,85,0.00,,CLR,0.00,VWS V14.01,2013-12-01 10:25:00,
2013-12-01 04:30:00,38.6,34.5,30.10,SSW,205,0.0,1.0,85,0.00,,CLR,0.00,VWS V14.01,2013-12-01 10:30:00,
2013-12-01 04:35:00,39.0,34.9,30.10,SSW,205,0.0,2.0,85,0.00,,CLR,0.00,VWS V14.01,2013-12-01 10:35:00,
2013-12-01 04:40:00,39.4,35.3,30.10,SSW,205,0.0,2.0,85,0.00,,CLR,0.00,VWS V14.01,2013-12-01 10:40:00,
2013-12-01 04:45:00,39.7,35.6,30.10,SSW,205,0.0,0.0,85,0.00,,OVC046,0.00,VWS V14.01,2013-12-01 10:45:00,
2013-12-01 04:50:00,40.0,35.9,30.10,SSW,205,0.0,0.0,85,0.00,,OVC046,0.00,VWS V14.01,2013-12-01 10:50:00,
2013-12-01 04:55:00,40.3,36.2,30.10,SSW,205,0.0,2.0,85,0.00,,OVC046,0.00,VWS V14.01,2013-12-01 10:55:00,
2013-12-01 05:00:00,40.6,36.5,30.10,SSW,205,0.0,3.0,85,0.00,,OVC046,0.00,VWS V14.01,2013-12-01 11:00:00,
2013-12-01 05:05:00,41.0,36.8,30.10,SSW,205,0.0,2.0,85,0.00,,OVC046,0.00,VWS V14.01,2013-12-01 11:05:00,
2013-12-01 05:10:00,41.3,36.8,30.09,SSW,205,0.0,2.0,84,0.00,,OVC046,0.00,VWS V14.01,2013-12-01 11:10:00,
2013-12-01 05:15:00,41.6,37.1,30.09,SSW,205,0.0,2.0,84,0.00,,OVC046,0.00,VWS V14.01,2013-12-01 11:15:00,
2013-12-01 05:20:00,41.8,37.3,30.10,SSW,205,0.0,2.0,84,0.00,,OVC046,0.00,VWS V14.01,2013-12-01 11:20:00,
2013-12-01 05:25:00,41.8,37.0,30.09,SSW,205,0.0,1.0,83,0.00,,OVC046,0.00,VWS V14.01,2013-12-01 11:25:00,
2013-12-01 05:30:00,41.7,36.9,30.09,SSW,205,0.0,1.0,83,0.00,,OVC046,0.00,VWS V14.01,2013-12-01 11:30:00,
2013-12-01 05:35:00,41.6,36.8,30.10,SSW,205,0.0,0.0,83,0.00,,OVC046,0.00,VWS V14.01,2013-12-01 11:35:00,
2013-12-01 05:40:00,41.5,36.7,30.09,SSW,205,0.0,0.0,83,0.00,,OVC046,0.00,VWS V14.01,2013-12-01 11:40:00,
2013-12-01 05:45:00,41.3,36.5,30.09,SSW,205,0.0,1.0,83,0.00,,OVC044,0.00,VWS V14.01,2013-12-01 11:45:00,
2013-12-01 05:50:00,41.0,36.2,30.09,SSW,205,0.0,1.0,83,0.00,,OVC044,0.00,VWS V14.01,2013-12-01 11:50:00,
2013-12-01 05:55:00,40.8,36.0,30.09,SSW,205,0.0,0.0,83,0.00,,SCT042,0.00,VWS V14.01,2013-12-01 11:55:00,
2013-12-01 06:00:00,40.7,36.2,30.09,SSW,205,0.0,0.0,84,0.00,,SCT042,0.00,VWS V14.01,2013-12-01 12:00:00,
2013-12-01 06:05:00,40.6,36.2,30.10,SSW,205,0.0,0.0,84,0.00,,SCT042,0.00,VWS V14.01,2013-12-01 12:05:00,
2013-12-01 06:10:00,40.5,36.0,30.10,SSW,205,0.0,0.0,84,0.00,,SCT042,0.00,VWS V14.01,2013-12-01 12:10:00,
2013-12-01 06:15:00,40.4,36.0,30.10,SSW,205,0.0,0.0,84,0.00,,SCT042,0.00,VWS V14.01,2013-12-01 12:15:00,
2013-12-01 06:20:00,40.3,35.9,30.11,SSW,205,0.0,0.0,84,0.00,,SCT042,0.00,VWS V14.01,2013-12-01 12:20:00,
2013-12-01 06:25:00,40.0,35.6,30.11,SSW,205,0.0,0.0,84,0.00,,SCT042,0.00,VWS V14.01,2013-12-01 12:25:00,
2013-12-01 06:30:00,39.6,35.2,30.11,SSW,205,0.0,0.0,84,0.00,,SCT042,0.00,VWS V14.01,2013-12-01 12:30:00,
2013-12-01 06:35:00,39.3,34.9,30.11,SSW,205,0.0,0.0,84,0.00,,SCT042,0.00,VWS V14.01,2013-12-01 12:35:00,
2013-12-01 06:40:00,38.8,34.4,30.11,SSW,205,0.0,0.0,84,0.00,,SCT042,0.00,VWS V14.01,2013-12-01 12:40:00,
2013-12-01 06:45:00,38.2,33.8,30.10,SSW,205,0.0,0.0,84,0.00,,SCT042,0.00,VWS V14.01,2013-12-01 12:45:00,
2013-12-01 06:50:00,38.0,33.9,30.10,SSW,205,0.0,0.0,85,0.00,,SCT042,0.00,VWS V14.01,2013-12-01 12:50:00,
2013-12-01 06:55:00,38.1,34.0,30.11,SSW,205,0.0,0.0,85,0.00,,CLR,0.00,VWS V14.01,2013-12-01 12:55:00,
2013-12-01 07:00:00,38.0,33.9,30.11,SSW,205,0.0,0.0,85,0.00,,CLR,0.00,VWS V14.01,2013-12-01 13:00:00,
2013-12-01 07:05:00,37.6,33.5,30.11,SSW,205,0.0,0.0,85,0.00,,CLR,0.00,VWS V14.01,2013-12-01 13:05:00,
2013-12-01 07:10:00,37.5,33.7,30.12,SSW,205,0.0,0.0,86,0.00,,CLR,0.00,VWS V14.01,2013-12-01 13:10:00,
2013-12-01 07:15:00,37.6,33.8,30.11,SSW,205,0.0,0.0,86,0.00,,CLR,0.00,VWS V14.01,2013-12-01 13:15:00,
2013-12-01 07:20:00,37.7,33.9,30.11,SSW,205,0.0,0.0,86,0.00,,CLR,0.00,VWS V14.01,2013-12-01 13:20:00,
2013-12-01 07:25:00,37.8,34.0,30.12,SSW,205,0.0,0.0,86,0.00,,CLR,0.00,VWS V14.01,2013-12-01 13:25:00,
2013-12-01 07:30:00,37.7,33.9,30.11,SSW,205,0.0,0.0,86,0.00,,CLR,0.00,VWS V14.01,2013-12-01 13:30:00,
2013-12-01 07:35:00,37.7,33.9,30.12,SSW,205,0.0,0.0,86,0.00,,CLR,0.00,VWS V14.01,2013-12-01 13:35:00,
2013-12-01 07:40:00,37.5,33.7,30.12,SSW,205,0.0,0.0,86,0.00,,CLR,0.00,VWS V14.01,2013-12-01 13:40:00,
2013-12-01 07:45:00,37.1,33.3,30.12,SSW,205,0.0,0.0,86,0.00,,CLR,0.00,VWS V14.01,2013-12-01 13:45:00,
2013-12-01 07:50:00,37.4,33.6,30.12,SSW,205,0.0,0.0,86,0.00,,CLR,0.00,VWS V14.01,2013-12-01 13:50:00,
2013-12-01 07:55:00,37.9,34.1,30.12,SSW,205,0.0,1.0,86,0.00,,CLR,0.00,VWS V14.01,2013-12-01 13:55:00,
2013-12-01 08:00:00,38.5,34.7,30.12,SSW,205,0.0,1.0,86,0.00,,CLR,0.00,VWS V14.01,2013-12-01 14:00:00,
2013-12-01 08:05:00,39.0,35.2,30.12,SSW,205,0.0,0.0,86,0.00,,CLR,0.00,VWS V14.01,2013-12-01 14:05:00,
2013-12-01 08:10:00,39.4,35.6,30.12,SSW,205,0.0,0.0,86,0.00,,CLR,0.00,VWS V14.01,2013-12-01 14:10:00,
2013-12-01 08:15:00,39.9,36.1,30.12,SSW,205,0.0,0.0,86,0.00,,CLR,0.00,VWS V14.01,2013-12-01 14:15:00,
2013-12-01 08:20:00,40.6,36.8,30.13,SSW,205,0.0,0.0,86,0.00,,CLR,0.00,VWS V14.01,2013-12-01 14:20:00,
2013-12-01 08:25:00,41.5,37.6,30.12,SSW,205,0.0,0.0,86,0.00,,CLR,0.00,VWS V14.01,2013-12-01 14:25:00,
2013-12-01 08:30:00,42.3,38.4,30.12,SSW,205,0.0,1.0,86,0.00,,CLR,0.00,VWS V14.01,2013-12-01 14:30:00,
2013-12-01 08:35:00,43.0,39.1,30.12,SSW,205,2.0,2.0,86,0.00,,CLR,0.00,VWS V14.01,2013-12-01 14:35:00,
2013-12-01 08:40:00,43.6,39.4,30.12,SSW,209,1.0,5.0,85,0.00,,CLR,0.00,VWS V14.01,2013-12-01 14:40:00,
2013-12-01 08:45:00,44.1,39.6,30.13,SW,233,4.0,4.0,84,0.00,,CLR,0.00,VWS V14.01,2013-12-01 14:45:00,
2013-12-01 08:50:00,44.5,39.7,30.13,SW,234,2.0,4.0,83,0.00,,CLR,0.00,VWS V14.01,2013-12-01 14:50:00,
2013-12-01 08:55:00,44.9,39.8,30.12,WNW,285,0.0,5.0,82,0.00,,CLR,0.00,VWS V14.01,2013-12-01 14:55:00,
2013-12-01 09:00:00,45.2,39.7,30.12,WSW,258,3.0,5.0,81,0.00,,CLR,0.00,VWS V14.01,2013-12-01 15:00:00,
2013-12-01 09:05:00,45.4,39.6,30.12,West,261,3.0,4.0,80,0.00,,CLR,0.00,VWS V14.01,2013-12-01 15:05:00,
2013-12-01 09:10:00,45.6,39.8,30.13,West,272,3.0,6.0,80,0.00,,CLR,0.00,VWS V14.01,2013-12-01 15:10:00,
2013-12-01 09:15:00,45.8,39.7,30.13,West,272,1.0,3.0,79,0.00,,CLR,0.00,VWS V14.01,2013-12-01 15:15:00,
2013-12-01 09:20:00,46.1,40.0,30.13,West,272,0.0,3.0,79,0.00,,CLR,0.00,VWS V14.01,2013-12-01 15:20:00,
2013-12-01 09:25:00,46.3,39.8,30.13,West,275,0.0,3.0,78,0.00,,CLR,0.00,VWS V14.01,2013-12-01 15:25:00,
2013-12-01 09:30:00,46.6,40.1,30.13,West,275,0.0,3.0,78,0.00,,CLR,0.00,VWS V14.01,2013-12-01 15:30:00,
2013-12-01 09:35:00,46.9,40.4,30.13,West,275,1.0,1.0,78,0.00,,CLR,0.00,VWS V14.01,2013-12-01 15:35:00,
2013-12-01 09:40:00,47.2,40.0,30.13,West,275,0.0,3.0,76,0.00,,CLR,0.00,VWS V14.01,2013-12-01 15:40:00,
2013-12-01 09:45:00,47.4,40.2,30.13,West,275,1.0,1.0,76,0.00,,CLR,0.00,VWS V14.01,2013-12-01 15:45:00,
2013-12-01 09:50:00,47.9,40.7,30.13,West,275,0.0,1.0,76,0.00,,CLR,0.00,VWS V14.01,2013-12-01 15:50:00,
2013-12-01 09:55:00,48.2,40.7,30.12,West,275,0.0,3.0,75,0.00,,CLR,0.00,VWS V14.01,2013-12-01 15:55:00,
2013-12-01 10:00:00,48.5,40.6,30.12,West,275,0.0,3.0,74,0.00,,CLR,0.00,VWS V14.01,2013-12-01 16:00:00,
2013-12-01 10:05:00,48.7,40.8,30.12,WNW,288,0.0,3.0,74,0.00,,CLR,0.00,VWS V14.01,2013-12-01 16:05:00,
2013-12-01 10:10:00,49.1,41.2,30.12,WSW,258,0.0,3.0,74,0.00,,CLR,0.00,VWS V14.01,2013-12-01 16:10:00,
2013-12-01 10:15:00,49.4,41.1,30.12,West,262,2.0,2.0,73,0.00,,CLR,0.00,VWS V14.01,2013-12-01 16:15:00,
2013-12-01 10:20:00,49.6,41.0,30.11,West,267,0.0,2.0,72,0.00,,CLR,0.00,VWS V14.01,2013-12-01 16:20:00,
2013-12-01 10:25:00,49.5,40.5,30.11,WSW,244,0.0,3.0,71,0.00,,CLR,0.00,VWS V14.01,2013-12-01 16:25:00,
2013-12-01 10:30:00,49.9,40.9,30.11,WSW,244,0.0,3.0,71,0.00,,CLR,0.00,VWS V14.01,2013-12-01 16:30:00,
2013-12-01 10:35:00,50.3,41.3,30.11,WSW,244,0.0,1.0,71,0.00,,CLR,0.00,VWS V14.01,2013-12-01 16:35:00,
2013-12-01 10:40:00,50.8,41.0,30.11,WSW,244,0.0,2.0,69,0.00,,CLR,0.00,VWS V14.01,2013-12-01 16:40:00,
2013-12-01 10:46:00,51.2,41.4,30.11,WSW,244,0.0,2.0,69,0.00,,CLR,0.00,VWS V14.01,2013-12-01 16:46:00,
2013-12-01 10:51:00,51.6,41.0,30.10,WSW,245,0.0,4.0,67,0.00,,CLR,0.00,VWS V14.01,2013-12-01 16:51:00,
2013-12-01 10:56:00,51.9,41.7,30.10,WSW,246,1.0,1.0,68,0.00,,CLR,0.00,VWS V14.01,2013-12-01 16:56:00,
2013-12-01 11:01:00,52.2,41.6,30.09,WSW,246,0.0,3.0,67,0.00,,CLR,0.00,VWS V14.01,2013-12-01 17:01:00,
2013-12-01 11:06:00,52.5,41.5,30.09,WSW,246,2.0,2.0,66,0.00,,CLR,0.00,VWS V14.01,2013-12-01 17:06:00,
2013-12-01 11:11:00,52.6,41.6,30.09,West,260,0.0,4.0,66,0.00,,CLR,0.00,VWS V14.01,2013-12-01 17:11:00,
2013-12-01 11:16:00,52.8,41.4,30.09,West,260,0.0,2.0,65,0.00,,CLR,0.00,VWS V14.01,2013-12-01 17:16:00,
2013-12-01 11:21:00,52.9,41.5,30.08,WSW,239,0.0,5.0,65,0.00,,CLR,0.00,VWS V14.01,2013-12-01 17:21:00,
2013-12-01 11:26:00,53.1,41.7,30.08,WSW,242,2.0,3.0,65,0.00,,CLR,0.00,VWS V14.01,2013-12-01 17:26:00,
2013-12-01 11:31:00,53.4,41.9,30.07,WSW,242,0.0,3.0,65,0.00,,CLR,0.00,VWS V14.01,2013-12-01 17:31:00,
2013-12-01 11:36:00,53.7,41.8,30.07,West,269,0.0,4.0,64,0.00,,CLR,0.00,VWS V14.01,2013-12-01 17:36:00,
2013-12-01 11:41:00,53.9,41.6,30.07,West,273,3.0,4.0,63,0.00,,CLR,0.00,VWS V14.01,2013-12-01 17:41:00,
2013-12-01 11:46:00,53.8,41.9,30.07,West,274,3.0,5.0,64,0.00,,CLR,0.00,VWS V14.01,2013-12-01 17:46:00,
2013-12-01 11:51:00,53.7,41.8,30.07,WSW,256,0.0,5.0,64,0.00,,CLR,0.00,VWS V14.01,2013-12-01 17:51:00,
2013-12-01 11:56:00,54.0,42.1,30.06,West,261,2.0,4.0,64,0.00,,CLR,0.00,VWS V14.01,2013-12-01 17:56:00,
2013-12-01 12:01:00,54.4,42.1,30.06,West,261,1.0,4.0,63,0.00,,CLR,0.00,VWS V14.01,2013-12-01 18:01:00,
2013-12-01 12:06:00,54.7,42.0,30.06,WNW,299,0.0,4.0,62,0.00,,CLR,0.00,VWS V14.01,2013-12-01 18:06:00,
2013-12-01 12:11:00,54.9,42.1,30.05,WSW,249,4.0,6.0,62,0.00,,CLR,0.00,VWS V14.01,2013-12-01 18:11:00,
2013-12-01 12:16:00,55.0,42.2,30.05,WSW,249,3.0,4.0,62,0.00,,CLR,0.00,VWS V14.01,2013-12-01 18:16:00,
2013-12-01 12:21:00,55.1,41.9,30.05,WSW,249,0.0,4.0,61,0.00,,CLR,0.00,VWS V14.01,2013-12-01 18:21:00,
2013-12-01 12:26:00,55.2,42.4,30.04,WSW,238,2.0,5.0,62,0.00,,CLR,0.00,VWS V14.01,2013-12-01 18:26:00,
2013-12-01 12:31:00,55.5,42.3,30.04,West,273,2.0,5.0,61,0.00,,CLR,0.00,VWS V14.01,2013-12-01 18:31:00,
2013-12-01 12:36:00,55.6,42.4,30.04,WNW,298,5.0,5.0,61,0.00,,CLR,0.00,VWS V14.01,2013-12-01 18:36:00,
2013-12-01 12:41:00,55.4,42.2,30.04,WSW,238,0.0,6.0,61,0.00,,CLR,0.00,VWS V14.01,2013-12-01 18:41:00,
2013-12-01 12:46:00,55.3,42.5,30.03,West,269,6.0,6.0,62,0.00,,CLR,0.00,VWS V14.01,2013-12-01 18:46:00,
2013-12-01 12:51:00,55.3,42.5,30.03,WSW,240,7.0,7.0,62,0.00,,CLR,0.00,VWS V14.01,2013-12-01 18:51:00,
2013-12-01 12:56:00,55.3,42.5,30.03,WNW,302,0.0,6.0,62,0.00,,CLR,0.00,VWS V14.01,2013-12-01 18:56:00,
2013-12-01 13:01:00,55.5,42.7,30.03,WNW,282,1.0,6.0,62,0.00,,CLR,0.00,VWS V14.01,2013-12-01 19:01:00,
2013-12-01 13:06:00,55.7,42.9,30.02,WSW,258,1.0,6.0,62,0.00,,CLR,0.00,VWS V14.01,2013-12-01 19:06:00,
2013-12-01 13:11:00,56.0,43.2,30.02,WNW,298,1.0,6.0,62,0.00,,CLR,0.00,VWS V14.01,2013-12-01 19:11:00,
2013-12-01 13:16:00,56.1,42.8,30.02,West,281,0.0,4.0,61,0.00,,CLR,0.00,VWS V14.01,2013-12-01 19:16:00,
2013-12-01 13:21:00,56.2,43.0,30.02,WSW,256,2.0,6.0,61,0.00,,CLR,0.00,VWS V14.01,2013-12-01 19:21:00,
2013-12-01 13:26:00,56.4,43.6,30.02,West,259,2.0,3.0,62,0.00,,CLR,0.00,VWS V14.01,2013-12-01 19:26:00,
2013-12-01 13:31:00,56.5,42.8,30.01,WNW,292,3.0,5.0,60,0.00,,CLR,0.00,VWS V14.01,2013-12-01 19:31:00,
2013-12-01 13:36:00,56.3,43.0,30.01,WNW,292,1.0,3.0,61,0.00,,CLR,0.00,VWS V14.01,2013-12-01 19:36:00,
2013-12-01 13:41:00,56.2,43.0,30.01,WSW,239,0.0,6.0,61,0.00,,CLR,0.00,VWS V14.01,2013-12-01 19:41:00,
2013-12-01 13:46:00,56.1,42.8,30.01,WSW,250,0.0,5.0,61,0.00,,CLR,0.00,VWS V14.01,2013-12-01 19:46:00,
2013-12-01 13:51:00,56.1,42.8,30.01,WSW,250,1.0,5.0,61,0.00,,CLR,0.00,VWS V14.01,2013-12-01 19:51:00,
2013-12-01 13:56:00,56.3,43.0,30.00,WSW,250,4.0,4.0,61,0.00,,CLR,0.00,VWS V14.01,2013-12-01 19:56:00,
2013-12-01 14:01:00,56.5,43.2,30.00,SW,232,0.0,6.0,61,0.00,,CLR,0.00,VWS V14.01,2013-12-01 20:01:00,
2013-12-01 14:06:00,56.7,43.0,30.00,WSW,245,1.0,6.0,60,0.00,,CLR,0.00,VWS V14.01,2013-12-01 20:06:00,
2013-12-01 14:11:00,56.9,43.2,30.00,WSW,248,3.0,6.0,60,0.00,,CLR,0.00,VWS V14.01,2013-12-01 20:11:00,
2013-12-01 14:16:00,57.0,43.3,30.00,WSW,248,0.0,2.0,60,0.00,,CLR,0.00,VWS V14.01,2013-12-01 20:16:00,
2013-12-01 14:21:00,57.4,43.2,30.00,WSW,253,1.0,3.0,59,0.00,,CLR,0.00,VWS V14.01,2013-12-01 20:21:00,
2013-12-01 14:26:00,57.7,43.5,30.00,WSW,253,2.0,3.0,59,0.00,,CLR,0.00,VWS V14.01,2013-12-01 20:26:00,
2013-12-01 14:31:00,57.7,43.0,30.00,WSW,254,0.0,3.0,58,0.00,,CLR,0.00,VWS V14.01,2013-12-01 20:31:00,
2013-12-01 14:36:00,57.5,43.3,30.00,West,260,2.0,3.0,59,0.00,,CLR,0.00,VWS V14.01,2013-12-01 20:36:00,
2013-12-01 14:41:00,57.1,42.9,30.00,West,260,0.0,4.0,59,0.00,,CLR,0.00,VWS V14.01,2013-12-01 20:41:00,
2013-12-01 14:46:00,57.0,42.8,30.00,West,263,4.0,6.0,59,0.00,,CLR,0.00,VWS V14.01,2013-12-01 20:46:00,
2013-12-01 14:51:00,56.8,42.6,30.00,WSW,252,1.0,6.0,59,0.00,,CLR,0.00,VWS V14.01,2013-12-01 20:51:00,
2013-12-01 14:56:00,56.7,42.5,29.99,WSW,255,1.0,3.0,59,0.00,,CLR,0.00,VWS V14.01,2013-12-01 20:56:00,
2013-12-01 15:01:00,56.8,43.1,30.00,WSW,256,0.0,3.0,60,0.00,,CLR,0.00,VWS V14.01,2013-12-01 21:01:00,
2013-12-01 15:06:00,56.7,42.5,29.99,WSW,256,3.0,3.0,59,0.00,,CLR,0.00,VWS V14.01,2013-12-01 21:06:00,
2013-12-01 15:11:00,56.6,42.5,29.99,WSW,256,1.0,3.0,59,0.00,,CLR,0.00,VWS V14.01,2013-12-01 21:11:00,
2013-12-01 15:16:00,56.6,42.5,29.99,WSW,256,0.0,2.0,59,0.00,,CLR,0.00,VWS V14.01,2013-12-01 21:16:00,
2013-12-01 15:21:00,56.7,42.5,29.98,WSW,256,0.0,2.0,59,0.00,,CLR,0.00,VWS V14.01,2013-12-01 21:21:00,
2013-12-01 15:26:00,56.8,42.6,29.98,WSW,256,1.0,2.0,59,0.00,,CLR,0.00,VWS V14.01,2013-12-01 21:26:00,
2013-12-01 15:31:00,56.8,42.6,29.98,WSW,256,0.0,2.0,59,0.00,,CLR,0.00,VWS V14.01,2013-12-01 21:31:00,
2013-12-01 15:36:00,56.7,42.5,29.98,WSW,256,0.0,0.0,59,0.00,,CLR,0.00,VWS V14.01,2013-12-01 21:36:00,
2013-12-01 15:41:00,56.6,42.9,29.98,WSW,256,0.0,0.0,60,0.00,,CLR,0.00,VWS V14.01,2013-12-01 21:41:00,
2013-12-01 15:46:00,56.6,42.9,29.98,WSW,256,0.0,0.0,60,0.00,,CLR,0.00,VWS V14.01,2013-12-01 21:46:00,
2013-12-01 15:51:00,56.8,43.1,29.98,WSW,256,0.0,0.0,60,0.00,,CLR,0.00,VWS V14.01,2013-12-01 21:51:00,
2013-12-01 15:56:00,56.6,42.9,29.98,WSW,256,0.0,0.0,60,0.00,,CLR,0.00,VWS V14.01,2013-12-01 21:56:00,
2013-12-01 16:01:00,56.4,42.7,29.98,WSW,256,0.0,0.0,60,0.00,,CLR,0.00,VWS V14.01,2013-12-01 22:01:00,
2013-12-01 16:06:00,56.2,43.0,29.98,WSW,256,0.0,0.0,61,0.00,,CLR,0.00,VWS V14.01,2013-12-01 22:06:00,
2013-12-01 16:11:00,55.9,42.7,29.98,WSW,256,0.0,0.0,61,0.00,,CLR,0.00,VWS V14.01,2013-12-01 22:11:00,
2013-12-01 16:16:00,55.5,42.3,29.97,WSW,256,0.0,0.0,61,0.00,,CLR,0.00,VWS V14.01,2013-12-01 22:16:00,
2013-12-01 16:21:00,55.0,41.8,29.98,WSW,256,0.0,0.0,61,0.00,,CLR,0.00,VWS V14.01,2013-12-01 22:21:00,
2013-12-01 16:26:00,54.4,41.7,29.98,WSW,256,0.0,0.0,62,0.00,,CLR,0.00,VWS V14.01,2013-12-01 22:26:00,
2013-12-01 16:31:00,53.9,41.6,29.98,WSW,256,0.0,0.0,63,0.00,,CLR,0.00,VWS V14.01,2013-12-01 22:31:00,
2013-12-01 16:36:00,53.4,41.5,29.98,WSW,256,0.0,0.0,64,0.00,,CLR,0.00,VWS V14.01,2013-12-01 22:36:00,
2013-12-01 16:41:00,53.0,41.6,29.98,WSW,256,0.0,0.0,65,0.00,,CLR,0.00,VWS V14.01,2013-12-01 22:41:00,
2013-12-01 16:46:00,52.6,41.6,29.98,WSW,256,0.0,0.0,66,0.00,,CLR,0.00,VWS V14.01,2013-12-01 22:46:00,
2013-12-01 16:51:00,52.3,41.3,29.98,WSW,256,0.0,0.0,66,0.00,,CLR,0.00,VWS V14.01,2013-12-01 22:51:00,
2013-12-01 16:56:00,51.9,40.9,29.98,WSW,256,0.0,0.0,66,0.00,,CLR,0.00,VWS V14.01,2013-12-01 22:56:00,
2013-12-01 17:01:00,51.4,40.8,29.98,WSW,256,0.0,0.0,67,0.00,,CLR,0.00,VWS V14.01,2013-12-01 23:01:00,
2013-12-01 17:06:00,51.1,40.9,29.98,WSW,256,0.0,0.0,68,0.00,,CLR,0.00,VWS V14.01,2013-12-01 23:06:00,
2013-12-01 17:11:00,50.7,40.5,29.98,WSW,256,0.0,0.0,68,0.00,,CLR,0.00,VWS V14.01,2013-12-01 23:11:00,
2013-12-01 17:16:00,50.3,40.5,29.98,WSW,256,0.0,0.0,69,0.00,,CLR,0.00,VWS V14.01,2013-12-01 23:16:00,
2013-12-01 17:21:00,49.9,40.2,29.98,WSW,256,0.0,0.0,69,0.00,,CLR,0.00,VWS V14.01,2013-12-01 23:21:00,
2013-12-01 17:26:00,49.6,40.2,29.98,WSW,256,0.0,0.0,70,0.00,,CLR,0.00,VWS V14.01,2013-12-01 23:26:00,
2013-12-01 17:31:00,49.2,40.2,29.98,WSW,256,0.0,0.0,71,0.00,,CLR,0.00,VWS V14.01,2013-12-01 23:31:00,
2013-12-01 17:36:00,48.9,40.3,29.98,WSW,256,0.0,0.0,72,0.00,,CLR,0.00,VWS V14.01,2013-12-01 23:36:00,
2013-12-01 17:41:00,48.6,40.0,29.99,WSW,256,0.0,0.0,72,0.00,,CLR,0.00,VWS V14.01,2013-12-01 23:41:00,
2013-12-01 17:46:00,48.2,40.0,29.98,WSW,256,0.0,0.0,73,0.00,,CLR,0.00,VWS V14.01,2013-12-01 23:46:00,
2013-12-01 17:51:00,47.8,39.6,29.98,WSW,256,0.0,0.0,73,0.00,,CLR,0.00,VWS V14.01,2013-12-01 23:51:00,
2013-12-01 17:56:00,47.3,39.5,29.98,WSW,256,0.0,0.0,74,0.00,,CLR,0.00,VWS V14.01,2013-12-01 23:56:00,
2013-12-01 18:01:00,47.0,39.2,29.98,WSW,256,0.0,0.0,74,0.00,,CLR,0.00,VWS V14.01,2013-12-02 00:01:00,
2013-12-01 18:06:00,46.7,39.2,29.98,WSW,256,0.0,0.0,75,0.00,,CLR,0.00,VWS V14.01,2013-12-02 00:06:00,
2013-12-01 18:11:00,46.4,38.9,29.98,WSW,256,0.0,0.0,75,0.00,,CLR,0.00,VWS V14.01,2013-12-02 00:11:00,
2013-12-01 18:16:00,46.3,39.2,29.98,WSW,256,0.0,0.0,76,0.00,,CLR,0.00,VWS V14.01,2013-12-02 00:16:00,
2013-12-01 18:21:00,46.1,39.0,29.98,WSW,256,0.0,0.0,76,0.00,,CLR,0.00,VWS V14.01,2013-12-02 00:21:00,
2013-12-01 18:26:00,45.8,38.7,29.98,WSW,256,0.0,0.0,76,0.00,,CLR,0.00,VWS V14.01,2013-12-02 00:26:00,
2013-12-01 18:31:00,45.4,38.3,29.98,WSW,256,0.0,0.0,76,0.00,,CLR,0.00,VWS V14.01,2013-12-02 00:31:00,
2013-12-01 18:36:00,45.0,37.9,29.98,WSW,256,0.0,0.0,76,0.00,,CLR,0.00,VWS V14.01,2013-12-02 00:36:00,
2013-12-01 18:41:00,44.6,37.8,29.98,WSW,256,0.0,0.0,77,0.00,,CLR,0.00,VWS V14.01,2013-12-02 00:41:00,
2013-12-01 18:46:00,44.2,37.8,29.98,WSW,256,0.0,0.0,78,0.00,,CLR,0.00,VWS V14.01,2013-12-02 00:46:00,
2013-12-01 18:51:00,43.7,37.3,29.98,WSW,256,0.0,0.0,78,0.00,,CLR,0.00,VWS V14.01,2013-12-02 00:51:00,
2013-12-01 18:56:00,43.2,36.8,29.98,WSW,256,0.0,0.0,78,0.00,,CLR,0.00,VWS V14.01,2013-12-02 00:56:00,
2013-12-01 19:01:00,42.5,36.5,29.98,WSW,256,0.0,0.0,79,0.00,,CLR,0.00,VWS V14.01,2013-12-02 01:01:00,
2013-12-01 19:06:00,42.0,36.3,29.97,WSW,256,0.0,0.0,80,0.00,,CLR,0.00,VWS V14.01,2013-12-02 01:06:00,
2013-12-01 19:11:00,41.8,36.4,29.97,WSW,256,0.0,0.0,81,0.00,,CLR,0.00,VWS V14.01,2013-12-02 01:11:00,
2013-12-01 19:16:00,41.5,36.1,29.97,WSW,256,0.0,0.0,81,0.00,,CLR,0.00,VWS V14.01,2013-12-02 01:16:00,
2013-12-01 19:21:00,41.2,36.1,29.97,WSW,256,0.0,0.0,82,0.00,,CLR,0.00,VWS V14.01,2013-12-02 01:21:00,
2013-12-01 19:26:00,40.9,35.8,29.97,WSW,256,0.0,0.0,82,0.00,,CLR,0.00,VWS V14.01,2013-12-02 01:26:00,
2013-12-01 19:31:00,40.5,35.5,29.96,WSW,256,0.0,0.0,82,0.00,,CLR,0.00,VWS V14.01,2013-12-02 01:31:00,
2013-12-01 19:36:00,40.2,35.5,29.96,WSW,256,0.0,0.0,83,0.00,,CLR,0.00,VWS V14.01,2013-12-02 01:36:00,
2013-12-01 19:41:00,40.0,35.3,29.97,WSW,256,0.0,0.0,83,0.00,,CLR,0.00,VWS V14.01,2013-12-02 01:41:00,
2013-12-01 19:46:00,39.7,35.0,29.97,WSW,256,0.0,3.0,83,0.00,,CLR,0.00,VWS V14.01,2013-12-02 01:46:00,
2013-12-01 19:52:00,39.5,35.1,29.97,WSW,256,0.0,0.0,84,0.00,,CLR,0.00,VWS V14.01,2013-12-02 01:52:00,
2013-12-01 19:57:00,39.5,35.1,29.97,WSW,256,0.0,0.0,84,0.00,,CLR,0.00,VWS V14.01,2013-12-02 01:57:00,
2013-12-01 20:02:00,39.7,35.6,29.97,WSW,256,0.0,0.0,85,0.00,,CLR,0.00,VWS V14.01,2013-12-02 02:02:00,
2013-12-01 20:07:00,39.8,35.7,29.97,WSW,256,0.0,0.0,85,0.00,,CLR,0.00,VWS V14.01,2013-12-02 02:07:00,
2013-12-01 20:12:00,39.9,35.8,29.97,WSW,256,0.0,0.0,85,0.00,,CLR,0.00,VWS V14.01,2013-12-02 02:12:00,
2013-12-01 20:17:00,39.9,35.8,29.97,WSW,256,0.0,0.0,85,0.00,,CLR,0.00,VWS V14.01,2013-12-02 02:17:00,
2013-12-01 20:22:00,39.8,35.7,29.97,WSW,256,0.0,0.0,85,0.00,,CLR,0.00,VWS V14.01,2013-12-02 02:22:00,
2013-12-01 20:27:00,39.8,35.7,29.97,WSW,256,0.0,0.0,85,0.00,,CLR,0.00,VWS V14.01,2013-12-02 02:27:00,
2013-12-01 20:32:00,39.8,35.7,29.97,WSW,256,0.0,0.0,85,0.00,,CLR,0.00,VWS V14.01,2013-12-02 02:32:00,
2013-12-01 20:37:00,39.9,35.8,29.97,WSW,256,0.0,0.0,85,0.00,,CLR,0.00,VWS V14.01,2013-12-02 02:37:00,
2013-12-01 20:42:00,40.0,35.9,29.97,WSW,256,0.0,0.0,85,0.00,,CLR,0.00,VWS V14.01,2013-12-02 02:42:00,
2013-12-01 20:47:00,40.2,36.3,29.97,WSW,256,0.0,0.0,86,0.00,,CLR,0.00,VWS V14.01,2013-12-02 02:47:00,
2013-12-01 20:52:00,40.4,36.5,29.97,WSW,256,0.0,0.0,86,0.00,,CLR,0.00,VWS V14.01,2013-12-02 02:52:00,
2013-12-01 20:57:00,40.6,36.8,29.97,WSW,256,0.0,1.0,86,0.00,,CLR,0.00,VWS V14.01,2013-12-02 02:57:00,
2013-12-01 21:02:00,40.9,37.0,29.97,WSW,256,0.0,0.0,86,0.00,,CLR,0.00,VWS V14.01,2013-12-02 03:02:00,
2013-12-01 21:07:00,41.2,37.3,29.97,West,259,0.0,2.0,86,0.00,,CLR,0.00,VWS V14.01,2013-12-02 03:07:00,
2013-12-01 21:12:00,41.5,37.3,29.97,West,259,0.0,0.0,85,0.00,,CLR,0.00,VWS V14.01,2013-12-02 03:12:00,
2013-12-01 21:17:00,41.9,37.7,29.96,West,259,0.0,1.0,85,0.00,,CLR,0.00,VWS V14.01,2013-12-02 03:17:00,
2013-12-01 21:22:00,42.4,37.9,29.96,WSW,258,0.0,0.0,84,0.00,,CLR,0.00,VWS V14.01,2013-12-02 03:22:00,
2013-12-01 21:27:00,42.8,37.7,29.96,WSW,258,0.0,0.0,82,0.00,,CLR,0.00,VWS V14.01,2013-12-02 03:27:00,
2013-12-01 21:32:00,43.2,37.8,29.96,WSW,258,0.0,0.0,81,0.00,,CLR,0.00,VWS V14.01,2013-12-02 03:32:00,
2013-12-01 21:37:00,43.4,37.7,29.96,WSW,258,0.0,1.0,80,0.00,,CLR,0.00,VWS V14.01,2013-12-02 03:37:00,
2013-12-01 21:42:00,43.5,37.8,29.95,WSW,258,0.0,0.0,80,0.00,,CLR,0.00,VWS V14.01,2013-12-02 03:42:00,
2013-12-01 21:47:00,43.5,37.4,29.95,SSE,162,0.0,2.0,79,0.00,,CLR,0.00,VWS V14.01,2013-12-02 03:47:00,
2013-12-01 21:52:00,43.6,37.5,29.95,ESE,118,0.0,0.0,79,0.00,,CLR,0.00,VWS V14.01,2013-12-02 03:52:00,
2013-12-01 21:57:00,43.6,37.2,29.95,ESE,118,0.0,1.0,78,0.00,,CLR,0.00,VWS V14.01,2013-12-02 03:57:00,
2013-12-01 22:02:00,43.5,37.1,29.95,ESE,118,0.0,0.0,78,0.00,,CLR,0.00,VWS V14.01,2013-12-02 04:02:00,
2013-12-01 22:07:00,43.5,37.1,29.95,ESE,118,0.0,0.0,78,0.00,,CLR,0.00,VWS V14.01,2013-12-02 04:07:00,
2013-12-01 22:12:00,43.3,36.9,29.95,ESE,118,0.0,0.0,78,0.00,,CLR,0.00,VWS V14.01,2013-12-02 04:12:00,
2013-12-01 22:17:00,43.2,36.8,29.95,ESE,118,0.0,0.0,78,0.00,,CLR,0.00,VWS V14.01,2013-12-02 04:17:00,
2013-12-01 22:22:00,43.1,36.7,29.95,ESE,118,0.0,0.0,78,0.00,,CLR,0.00,VWS V14.01,2013-12-02 04:22:00,
2013-12-01 22:27:00,43.0,36.6,29.95,ESE,118,2.0,2.0,78,0.00,,CLR,0.00,VWS V14.01,2013-12-02 04:27:00,
2013-12-01 22:32:00,43.0,36.6,29.95,ESE,118,0.0,0.0,78,0.00,,CLR,0.00,VWS V14.01,2013-12-02 04:32:00,
2013-12-01 22:37:00,42.8,36.8,29.95,ESE,118,0.0,0.0,79,0.00,,CLR,0.00,VWS V14.01,2013-12-02 04:37:00,
2013-12-01 22:42:00,42.7,36.7,29.94,ESE,118,0.0,0.0,79,0.00,,CLR,0.00,VWS V14.01,2013-12-02 04:42:00,
2013-12-01 22:47:00,42.5,36.5,29.95,ESE,118,0.0,0.0,79,0.00,,CLR,0.00,VWS V14.01,2013-12-02 04:47:00,
2013-12-01 22:52:00,42.4,36.4,29.95,ESE,118,0.0,0.0,79,0.00,,CLR,0.00,VWS V14.01,2013-12-02 04:52:00,
2013-12-01 22:57:00,42.4,36.4,29.94,ESE,118,0.0,0.0,79,0.00,,CLR,0.00,VWS V14.01,2013-12-02 04:57:00,
2013-12-01 23:01:00,42.4,36.7,29.94,ESE,118,0.0,2.0,80,0.00,,CLR,0.00,VWS V14.01,2013-12-02 05:01:00,
2013-12-01 23:02:00,42.4,36.7,29.94,ESE,118,0.0,0.0,80,0.00,,CLR,0.00,VWS V14.01,2013-12-02 05:02:00,
2013-12-01 23:07:00,42.4,36.7,29.94,ESE,118,0.0,1.0,80,0.00,,CLR,0.00,VWS V14.01,2013-12-02 05:07:00,
2013-12-01 23:12:00,42.4,36.4,29.93,ESE,118,0.0,0.0,79,0.00,,CLR,0.00,VWS V14.01,2013-12-02 05:12:00,
2013-12-01 23:17:00,42.4,36.4,29.93,ESE,118,0.0,2.0,79,0.00,,CLR,0.00,VWS V14.01,2013-12-02 05:17:00,
2013-12-01 23:21:00,42.3,36.3,29.93,ESE,118,0.0,2.0,79,0.00,,CLR,0.00,VWS V14.01,2013-12-02 05:21:00,
2013-12-01 23:27:00,42.3,36.3,29.92,ESE,118,0.0,2.0,79,0.00,,CLR,0.00,VWS V14.01,2013-12-02 05:27:00,
2013-12-01 23:32:00,42.2,36.2,29.92,ESE,118,0.0,0.0,79,0.00,,CLR,0.00,VWS V14.01,2013-12-02 05:32:00,
2013-12-01 23:37:00,42.1,36.1,29.92,ESE,118,0.0,2.0,79,0.00,,CLR,0.00,VWS V14.01,2013-12-02 05:37:00,
2013-12-01 23:42:00,42.0,36.0,29.92,ESE,118,0.0,0.0,79,0.00,,CLR,0.00,VWS V14.01,2013-12-02 05:42:00,
2013-12-01 23:47:00,41.8,35.8,29.92,ESE,118,0.0,1.0,79,0.00,,CLR,0.00,VWS V14.01,2013-12-02 05:47:00,
2013-12-01 23:52:00,41.7,35.7,29.92,ESE,118,0.0,0.0,79,0.00,,CLR,0.00,VWS V14.01,2013-12-02 05:52:00,
2013-12-01 23:57:00,41.5,35.5,29.92,ESE,118,0.0,0.0,79,0.00,,CLR,0.00,VWS V14.01,2013-12-02 05:57:00,